Time;durP1;ratioP1;P1;durP2;ratioP2;P2;SDS_P1;SDS_P2;PMS_P1;PMS_P2;Temp;Humidity;BMP_temperature;BMP_pressure;BME280_temperature;BME280_humidity;BME280_pressure;Samples;Min_cycle;Max_cycle;Signal;HPM_P1;HPM_P2
2022/10/29 00:01:11;;;;;;;0.00;0.00;;;16.50;99.90;15.80;97648.00;;;;5073975;28;20217;-76
2022/10/29 00:03:40;;;;;;;0.00;0.00;;;16.50;99.90;15.80;97717.00;;;;5074156;28;20243;-76
2022/10/29 00:06:11;;;;;;;0.00;0.00;;;16.50;99.90;15.80;97667.00;;;;5073287;28;20245;-76
2022/10/29 00:08:41;;;;;;;0.00;0.00;;;16.50;99.90;15.80;97658.00;;;;5071900;28;20198;-74
2022/10/29 00:11:13;;;;;;;0.00;0.00;;;16.50;99.90;15.80;97636.00;;;;5072196;28;20229;-74
2022/10/29 00:13:43;;;;;;;0.00;0.00;;;16.50;99.90;15.80;97644.00;;;;5073632;28;20616;-74
2022/10/29 00:16:14;;;;;;;0.00;0.00;;;16.50;99.90;15.80;97676.00;;;;5076875;28;20572;-74
2022/10/29 00:18:43;;;;;;;0.00;0.00;;;16.50;99.90;15.80;97767.00;;;;5074185;28;20193;-74
2022/10/29 00:21:17;;;;;;;0.00;0.00;;;16.40;99.90;15.80;97678.00;;;;5064082;28;20628;-74
2022/10/29 00:23:45;;;;;;;0.00;0.00;;;16.40;99.90;15.70;97593.00;;;;5074590;28;20659;-74
2022/10/29 00:26:15;;;;;;;0.00;0.00;;;16.50;99.90;15.80;97607.00;;;;5055530;28;20574;-74
2022/10/29 00:28:43;;;;;;;0.00;0.00;;;16.60;99.90;15.90;97735.00;;;;5055470;28;20254;-75
2022/10/29 00:31:14;;;;;;;0.00;0.00;;;16.60;99.90;15.90;97751.00;;;;5064856;28;20334;-75
2022/10/29 00:33:42;;;;;;;0.00;0.00;;;16.70;99.90;15.90;97720.00;;;;5073067;28;20718;-75
2022/10/29 00:36:14;;;;;;;0.00;0.00;;;16.70;99.90;15.90;97776.00;;;;5084405;28;20439;-75
2022/10/29 00:38:43;;;;;;;0.00;0.00;;;16.70;99.90;15.90;97761.00;;;;5075686;28;20190;-76
2022/10/29 00:41:15;;;;;;;0.10;0.10;;;16.70;99.90;15.90;97773.00;;;;5075066;28;20700;-74
2022/10/29 00:43:47;;;;;;;0.00;0.00;;;16.60;99.90;15.90;97758.00;;;;5072918;28;20676;-74
2022/10/29 00:46:22;;;;;;;0.00;0.00;;;16.60;99.90;15.80;97758.00;;;;5072602;28;20560;-74
2022/10/29 00:48:56;;;;;;;0.00;0.00;;;16.60;99.90;15.80;97755.00;;;;5081618;28;20220;-74
2022/10/29 00:51:27;;;;;;;0.00;0.00;;;16.50;99.90;15.80;97758.00;;;;5082814;28;20225;-75
2022/10/29 00:54:01;;;;;;;0.00;0.00;;;16.50;99.90;15.80;97758.00;;;;5084515;28;20208;-75
2022/10/29 00:56:35;;;;;;;0.00;0.00;;;16.50;99.90;15.80;97748.00;;;;5072158;28;20234;-74
2022/10/29 00:59:05;;;;;;;0.00;0.00;;;16.50;99.90;15.70;97743.00;;;;5070606;28;20193;-74
2022/10/29 01:01:33;;;;;;;0.00;0.00;;;16.50;99.90;15.70;97750.00;;;;5065062;28;20222;-76
2022/10/29 01:04:03;;;;;;;0.00;0.00;;;16.50;99.90;15.80;97682.00;;;;5072695;28;20194;-74
2022/10/29 01:06:34;;;;;;;0.00;0.00;;;16.50;99.90;15.70;97691.00;;;;5073052;28;20185;-74
2022/10/29 01:09:02;;;;;;;0.00;0.00;;;16.50;99.90;15.70;97688.00;;;;5070869;28;20198;-74
2022/10/29 01:11:48;;;;;;;0.00;0.00;;;16.50;99.90;15.70;97757.00;;;;5070571;28;20218;-74
2022/10/29 01:14:32;;;;;;;0.00;0.00;;;16.40;99.90;15.70;97743.00;;;;5072168;28;20185;-74
2022/10/29 01:17:13;;;;;;;0.00;0.00;;;16.50;99.90;15.60;97733.00;;;;5073129;28;20193;-74
2022/10/29 01:20:26;;;;;;;0.00;0.00;;;16.40;99.90;15.40;97726.00;;;;5054599;28;20197;-74
2022/10/29 01:23:19;;;;;;;0.00;0.00;;;16.40;99.90;15.50;97728.00;;;;5066871;28;20217;-74
2022/10/29 01:26:21;;;;;;;0.00;0.00;;;16.20;99.90;15.40;97676.00;;;;5072193;28;20197;-74
2022/10/29 01:29:09;;;;;;;0.00;0.00;;;16.20;99.90;15.30;97728.00;;;;5071555;28;20247;-73
2022/10/29 01:31:47;;;;;;;0.00;0.00;;;16.10;99.90;15.30;97997.00;;;;5061351;28;20587;-74
2022/10/29 01:34:25;;;;;;;0.00;0.00;;;16.10;99.90;15.30;97983.00;;;;5066454;28;20680;-74
2022/10/29 01:37:01;;;;;;;0.00;0.00;;;16.10;99.90;15.30;97979.00;;;;5070376;28;20683;-73
2022/10/29 01:39:39;;;;;;;0.00;0.00;;;16.10;99.90;15.30;97966.00;;;;5070569;28;20189;-74
2022/10/29 01:42:21;;;;;;;0.10;0.10;;;16.10;99.90;15.30;97691.00;;;;5059552;28;20704;-74
2022/10/29 01:44:57;;;;;;;0.00;0.00;;;16.10;99.90;15.30;97714.00;;;;5050735;28;20256;-74
2022/10/29 01:47:36;;;;;;;0.00;0.00;;;16.00;99.90;15.30;97703.00;;;;5064909;28;20255;-73
2022/10/29 01:50:10;;;;;;;0.00;0.00;;;16.00;99.90;15.30;97704.00;;;;5070437;28;20193;-75
2022/10/29 01:52:40;;;;;;;0.00;0.00;;;16.00;99.90;15.20;97714.00;;;;5063098;28;20684;-74
2022/10/29 01:55:09;;;;;;;0.00;0.00;;;16.00;99.90;15.20;97725.00;;;;5068506;28;20683;-73
2022/10/29 01:57:38;;;;;;;0.00;0.00;;;16.00;99.90;15.20;97685.00;;;;5061802;28;20190;-74
2022/10/29 02:00:11;;;;;;;0.00;0.00;;;15.90;99.90;15.10;97683.00;;;;5070043;28;20198;-74
2022/10/29 02:03:04;;;;;;;0.00;0.00;;;15.90;99.90;15.00;97720.00;;;;5063439;28;20213;-74
2022/10/29 02:05:43;;;;;;;0.00;0.00;;;15.80;99.90;14.90;97722.00;;;;5070199;28;20944;-74
2022/10/29 02:08:24;;;;;;;0.00;0.00;;;15.70;99.90;14.90;97717.00;;;;5070149;28;20181;-74
2022/10/29 02:10:58;;;;;;;0.00;0.00;;;15.60;99.90;14.90;97702.00;;;;5069613;28;20205;-74
2022/10/29 02:13:34;;;;;;;0.00;0.00;;;15.60;99.90;14.80;97740.00;;;;5077904;28;20213;-74
2022/10/29 02:16:08;;;;;;;0.00;0.00;;;15.60;99.90;14.80;97719.00;;;;5070765;28;20201;-73
2022/10/29 02:18:47;;;;;;;0.00;0.00;;;15.60;99.90;14.70;97723.00;;;;5070167;28;20583;-73
2022/10/29 02:21:17;;;;;;;0.00;0.00;;;15.50;99.90;14.70;97743.00;;;;5066950;28;20236;-74
2022/10/29 02:23:46;;;;;;;0.00;0.00;;;15.50;99.90;14.70;97739.00;;;;5069822;28;20205;-73
2022/10/29 02:26:14;;;;;;;0.00;0.00;;;15.60;99.90;14.70;97926.00;;;;5069882;28;20259;-76
2022/10/29 02:28:43;;;;;;;0.00;0.00;;;15.50;99.90;14.50;97944.00;;;;5071374;28;20185;-73
2022/10/29 02:31:11;;;;;;;0.00;0.00;;;15.40;99.90;14.40;97917.00;;;;5070378;28;20221;-73
2022/10/29 02:33:39;;;;;;;0.00;0.00;;;15.40;99.90;14.20;97918.00;;;;5069021;28;20326;-73
2022/10/29 02:36:09;;;;;;;0.00;0.00;;;15.20;99.90;14.20;97931.00;;;;5067231;28;20252;-73
2022/10/29 02:38:37;;;;;;;0.00;0.00;;;15.20;99.90;14.20;97972.00;;;;5062369;28;20247;-73
2022/10/29 02:41:05;;;;;;;0.00;0.00;;;15.20;99.90;14.20;97684.00;;;;5069764;28;20227;-73
2022/10/29 02:43:34;;;;;;;0.00;0.00;;;15.20;99.90;14.30;97701.00;;;;5064768;28;20197;-74
2022/10/29 02:46:13;;;;;;;0.00;0.00;;;15.20;99.90;14.30;97685.00;;;;5073740;28;20603;-74
2022/10/29 02:48:41;;;;;;;0.00;0.00;;;15.10;99.90;14.40;97669.00;;;;5066752;28;20243;-74
2022/10/29 02:51:12;;;;;;;0.00;0.00;;;15.20;99.90;14.40;97687.00;;;;5074286;28;20210;-74
2022/10/29 02:53:40;;;;;;;0.00;0.00;;;15.20;99.90;14.30;97677.00;;;;5055916;28;20217;-74
2022/10/29 02:56:09;;;;;;;0.00;0.00;;;15.10;99.90;14.30;97711.00;;;;5072505;28;20193;-74
2022/10/29 02:58:37;;;;;;;0.03;0.03;;;15.10;99.90;14.20;97693.00;;;;5072821;28;20204;-75
2022/10/29 03:01:06;;;;;;;0.00;0.00;;;15.00;99.90;14.20;97697.00;;;;5074101;28;20217;-75
2022/10/29 03:03:34;;;;;;;0.00;0.00;;;15.10;99.90;14.00;97699.00;;;;5073978;28;20186;-75
2022/10/29 03:06:02;;;;;;;0.00;0.00;;;14.80;99.90;13.70;97566.00;;;;5073112;28;20236;-74
2022/10/29 03:08:31;;;;;;;0.00;0.00;;;14.70;99.90;13.70;97645.00;;;;5073519;28;20177;-74
2022/10/29 03:10:59;;;;;;;0.00;0.00;;;14.70;99.90;13.80;97638.00;;;;5073313;28;20197;-74
2022/10/29 03:13:27;;;;;;;0.00;0.00;;;14.70;99.90;13.80;97629.00;;;;5075440;28;20210;-75
2022/10/29 03:15:56;;;;;;;0.10;0.10;;;14.70;99.90;13.70;97645.00;;;;5073815;28;20630;-74
2022/10/29 03:18:24;;;;;;;0.03;0.03;;;14.60;99.90;13.70;97646.00;;;;5073418;28;20657;-73
2022/10/29 03:20:52;;;;;;;0.00;0.00;;;14.60;99.90;13.70;97660.00;;;;5072993;28;20247;-74
2022/10/29 03:23:21;;;;;;;0.00;0.00;;;14.60;99.90;13.60;97566.00;;;;5071598;28;20240;-74
2022/10/29 03:25:52;;;;;;;0.00;0.00;;;14.60;99.90;13.80;97680.00;;;;5073171;28;20197;-74
2022/10/29 03:28:26;;;;;;;0.00;0.00;;;14.60;99.90;13.80;97713.00;;;;5074202;28;20196;-73
2022/10/29 03:30:54;;;;;;;0.00;0.00;;;14.70;99.90;13.80;97693.00;;;;5074200;28;20190;-74
2022/10/29 03:33:24;;;;;;;0.10;0.10;;;14.70;99.90;13.80;97685.00;;;;5073696;28;20249;-73
2022/10/29 03:35:57;;;;;;;0.08;0.08;;;14.70;99.90;13.80;97695.00;;;;5072522;28;20246;-74
2022/10/29 03:38:26;;;;;;;0.10;0.10;;;14.60;99.90;13.70;97681.00;;;;5073013;28;20741;-74
2022/10/29 03:40:56;;;;;;;0.00;0.00;;;14.60;99.90;13.70;97686.00;;;;5073292;28;20182;-75
2022/10/29 03:43:25;;;;;;;0.10;0.10;;;14.60;99.90;13.70;97671.00;;;;5072224;28;20205;-73
2022/10/29 03:45:54;;;;;;;0.00;0.00;;;14.70;99.90;13.70;97923.00;;;;5072078;28;20198;-74
2022/10/29 03:48:24;;;;;;;0.10;0.10;;;14.70;99.90;13.60;97907.00;;;;5072417;28;20554;-74
2022/10/29 03:50:56;;;;;;;0.00;0.00;;;14.60;99.90;13.60;97943.00;;;;5073136;28;20190;-74
2022/10/29 03:53:25;;;;;;;0.00;0.00;;;14.50;99.90;13.60;97942.00;;;;5073092;28;20221;-73
2022/10/29 03:55:56;;;;;;;0.00;0.00;;;14.50;99.90;13.60;97944.00;;;;5070423;28;20652;-73
2022/10/29 03:58:25;;;;;;;0.00;0.00;;;14.50;99.90;13.70;97895.00;;;;5071525;28;20205;-72
2022/10/29 04:00:56;;;;;;;0.10;0.10;;;14.60;99.90;13.80;97872.00;;;;5069259;28;20544;-72
2022/10/29 04:03:25;;;;;;;0.00;0.00;;;14.70;99.90;13.60;97849.00;;;;5072789;28;20194;-73
2022/10/29 04:05:53;;;;;;;0.00;0.00;;;14.60;99.90;13.40;97893.00;;;;5071372;28;20199;-73
2022/10/29 04:08:22;;;;;;;0.08;0.08;;;14.40;99.90;13.40;97905.00;;;;5071196;28;20664;-72
2022/10/29 04:10:51;;;;;;;0.00;0.00;;;14.40;99.90;13.40;97905.00;;;;5073046;28;20189;-73
2022/10/29 04:13:21;;;;;;;0.00;0.00;;;14.40;99.90;13.10;97921.00;;;;5065285;28;20344;-73
2022/10/29 04:15:53;;;;;;;0.00;0.00;;;14.00;99.90;13.10;97920.00;;;;5061393;28;20263;-74
2022/10/29 04:18:22;;;;;;;0.00;0.00;;;14.10;99.90;13.00;97920.00;;;;5070458;28;20186;-75
2022/10/29 04:20:50;;;;;;;0.00;0.00;;;14.00;99.90;13.00;97965.00;;;;5071454;28;20198;-74
2022/10/29 04:23:38;;;;;;;0.00;0.00;;;14.00;99.90;12.90;97955.00;;;;5060976;28;20206;-73
2022/10/29 04:26:26;;;;;;;0.00;0.00;;;13.90;99.90;12.90;97975.00;;;;5065790;28;20190;-73
2022/10/29 04:29:16;;;;;;;0.00;0.00;;;13.80;99.90;12.90;97977.00;;;;5052238;28;20240;-73
2022/10/29 04:31:44;;;;;;;0.00;0.00;;;13.90;99.90;12.90;97963.00;;;;5071204;28;20225;-73
2022/10/29 04:34:12;;;;;;;0.00;0.00;;;13.80;99.90;12.90;98002.00;;;;5072036;28;20213;-73
2022/10/29 04:36:40;;;;;;;0.00;0.00;;;13.80;99.90;12.90;97995.00;;;;5070737;28;20538;-73
2022/10/29 04:39:08;;;;;;;0.00;0.00;;;13.80;99.90;12.80;97999.00;;;;5071536;28;20637;-73
2022/10/29 04:41:36;;;;;;;0.00;0.00;;;13.70;99.90;12.90;97953.00;;;;5071998;28;20224;-74
2022/10/29 04:44:05;;;;;;;0.00;0.00;;;13.70;99.90;12.90;97987.00;;;;5072365;28;20189;-73
2022/10/29 04:46:34;;;;;;;0.00;0.00;;;13.80;99.90;12.90;97992.00;;;;5067351;28;20660;-73
2022/10/29 04:49:02;;;;;;;0.00;0.00;;;13.80;99.90;12.80;97944.00;;;;5071718;28;20762;-73
2022/10/29 04:51:30;;;;;;;0.00;0.00;;;13.70;99.90;12.80;97955.00;;;;5072555;28;20230;-73
2022/10/29 04:53:58;;;;;;;0.00;0.00;;;13.70;99.90;12.70;97992.00;;;;5071294;28;20213;-73
2022/10/29 04:56:26;;;;;;;0.00;0.00;;;13.60;99.90;12.50;97949.00;;;;5067884;28;20680;-73
2022/10/29 04:58:55;;;;;;;0.00;0.00;;;13.40;99.90;12.50;97956.00;;;;5071185;28;20217;-73
2022/10/29 05:01:23;;;;;;;0.00;0.00;;;13.50;99.90;12.40;97955.00;;;;5072231;28;20206;-73
2022/10/29 05:03:52;;;;;;;0.00;0.00;;;13.50;99.90;12.50;97990.00;;;;5070469;28;20198;-73
2022/10/29 05:06:26;;;;;;;0.05;0.05;;;13.50;99.90;12.40;97959.00;;;;5070289;28;20288;-73
2022/10/29 05:08:54;;;;;;;0.00;0.00;;;13.40;99.90;12.20;97986.00;;;;5071393;28;20193;-73
2022/10/29 05:11:23;;;;;;;0.10;0.10;;;13.20;99.90;12.10;97954.00;;;;5072257;28;20210;-73
2022/10/29 05:13:51;;;;;;;0.00;0.00;;;13.10;99.90;12.20;97944.00;;;;5079656;28;20619;-73
2022/10/29 05:16:19;;;;;;;0.10;0.10;;;13.20;99.90;12.20;97986.00;;;;5079286;28;20243;-74
2022/10/29 05:18:47;;;;;;;0.10;0.10;;;13.20;99.90;12.10;97959.00;;;;5077587;28;20193;-75
2022/10/29 05:21:16;;;;;;;0.10;0.10;;;12.90;99.90;11.90;97974.00;;;;5073417;28;20209;-72
2022/10/29 05:23:44;;;;;;;0.10;0.10;;;12.80;99.90;11.90;98006.00;;;;5071631;28;20194;-77
2022/10/29 05:26:13;;;;;;;0.10;0.10;;;12.80;99.90;11.90;97956.00;;;;5071698;28;20200;-75
2022/10/29 05:28:41;;;;;;;0.10;0.10;;;12.70;99.90;11.90;97947.00;;;;5071740;28;20268;-75
2022/10/29 05:31:09;;;;;;;0.00;0.00;;;12.70;99.90;11.90;97958.00;;;;5072068;28;20214;-75
2022/10/29 05:33:37;;;;;;;0.10;0.10;;;12.80;99.90;11.90;97965.00;;;;5071343;28;20540;-74
2022/10/29 05:36:06;;;;;;;0.10;0.10;;;12.70;99.90;11.80;97946.00;;;;5069778;28;20202;-74
2022/10/29 05:38:35;;;;;;;0.00;0.00;;;12.70;99.90;11.80;97952.00;;;;5070536;28;20205;-76
2022/10/29 05:41:04;;;;;;;0.00;0.00;;;12.70;99.90;11.90;97950.00;;;;5072496;28;20217;-73
2022/10/29 05:43:32;;;;;;;0.10;0.10;;;12.80;99.90;12.00;98002.00;;;;5073089;28;20189;-74
2022/10/29 05:46:03;;;;;;;0.10;0.10;;;12.80;99.90;12.10;97976.00;;;;5071469;28;20299;-74
2022/10/29 05:48:31;;;;;;;0.00;0.00;;;12.90;99.90;12.10;97984.00;;;;5063965;28;20198;-76
2022/10/29 05:50:59;;;;;;;0.10;0.10;;;12.90;99.90;12.00;97985.00;;;;5071912;28;20232;-76
2022/10/29 05:53:27;;;;;;;0.00;0.00;;;12.80;99.90;12.00;98004.00;;;;5069642;28;20568;-74
2022/10/29 05:55:59;;;;;;;0.00;0.00;;;12.80;99.90;12.00;97970.00;;;;5064131;28;20217;-74
2022/10/29 05:58:27;;;;;;;0.00;0.00;;;12.90;99.90;12.00;97966.00;;;;5070120;28;20619;-74
2022/10/29 06:00:55;;;;;;;0.00;0.00;;;12.90;99.90;12.00;97945.00;;;;5067032;28;20198;-74
2022/10/29 06:03:23;;;;;;;0.08;0.08;;;12.90;99.90;12.00;97940.00;;;;5070548;28;20190;-74
2022/10/29 06:05:51;;;;;;;0.00;0.00;;;12.90;99.90;12.00;97953.00;;;;5070497;28;20255;-75
2022/10/29 06:08:19;;;;;;;0.10;0.10;;;12.90;99.90;12.00;97952.00;;;;5070571;28;20200;-73
2022/10/29 06:10:48;;;;;;;0.10;0.10;;;12.90;99.90;11.90;97954.00;;;;5070397;28;20193;-72
2022/10/29 06:13:20;;;;;;;0.10;0.10;;;12.90;99.90;11.70;97941.00;;;;5071551;28;20722;-73
2022/10/29 06:15:50;;;;;;;0.08;0.08;;;12.60;99.90;11.60;97950.00;;;;5069609;28;20218;-73
2022/10/29 06:18:18;;;;;;;0.10;0.10;;;12.60;99.90;11.60;97944.00;;;;5072228;28;20237;-72
2022/10/29 06:20:47;;;;;;;0.00;0.00;;;12.50;99.90;11.70;97946.00;;;;5074940;28;20259;-73
2022/10/29 06:23:15;;;;;;;0.10;0.10;;;12.60;99.90;11.60;97951.00;;;;5074431;28;20202;-73
2022/10/29 06:25:43;;;;;;;0.10;0.10;;;12.50;99.90;11.60;97954.00;;;;5073887;28;20252;-72
2022/10/29 06:28:15;;;;;;;0.00;0.00;;;12.60;99.90;11.50;97964.00;;;;5075036;28;20672;-73
2022/10/29 06:30:50;;;;;;;0.10;0.10;;;12.50;99.90;11.50;97955.00;;;;5074687;28;20662;-73
2022/10/29 06:33:22;;;;;;;0.10;0.10;;;12.40;99.90;11.50;97973.00;;;;5070916;28;20189;-73
2022/10/29 06:35:59;;;;;;;0.10;0.10;;;12.50;99.90;11.60;97974.00;;;;5072477;28;20951;-73
2022/10/29 06:38:27;;;;;;;0.00;0.00;;;12.50;99.90;11.60;97966.00;;;;5073440;28;20247;-73
2022/10/29 06:40:56;;;;;;;0.10;0.10;;;12.50;99.90;11.70;97966.00;;;;5073806;28;20202;-74
2022/10/29 06:43:24;;;;;;;0.00;0.00;;;12.60;99.90;11.70;97965.00;;;;5074714;28;20213;-74
2022/10/29 06:45:53;;;;;;;0.10;0.10;;;12.60;99.90;11.80;97975.00;;;;5072298;28;20644;-74
2022/10/29 06:48:21;;;;;;;0.00;0.00;;;12.60;99.90;11.80;97966.00;;;;5065950;28;20615;-74
2022/10/29 06:50:50;;;;;;;0.00;0.00;;;12.70;99.90;11.90;97977.00;;;;5064788;28;20206;-74
2022/10/29 06:53:18;;;;;;;0.10;0.10;;;12.70;99.90;11.90;97964.00;;;;5071693;28;20193;-74
2022/10/29 06:55:46;;;;;;;0.10;0.10;;;12.70;99.90;11.90;97963.00;;;;5072046;28;20221;-74
2022/10/29 06:58:17;;;;;;;0.00;0.00;;;12.70;99.90;12.00;97968.00;;;;5066068;28;20198;-74
2022/10/29 07:00:46;;;;;;;0.03;0.03;;;12.80;99.90;12.10;97970.00;;;;5065317;28;20205;-74
2022/10/29 07:03:18;;;;;;;0.00;0.00;;;12.90;99.90;12.10;97976.00;;;;5073908;28;20197;-75
2022/10/29 07:05:47;;;;;;;0.00;0.00;;;13.00;99.90;12.20;97980.00;;;;5066435;28;20667;-74
2022/10/29 07:08:15;;;;;;;0.08;0.08;;;13.00;99.90;12.30;97986.00;;;;5068478;28;20233;-74
2022/10/29 07:10:43;;;;;;;0.10;0.10;;;13.10;99.90;12.30;97988.00;;;;5073508;28;20197;-75
2022/10/29 07:13:11;;;;;;;0.10;0.10;;;13.10;99.90;12.40;97971.00;;;;5072804;28;20202;-74
2022/10/29 07:15:39;;;;;;;0.00;0.00;;;13.20;99.90;12.40;97969.00;;;;5067770;28;20226;-74
2022/10/29 07:18:10;;;;;;;0.10;0.10;;;13.20;99.90;12.50;97969.00;;;;5071890;28;20669;-74
2022/10/29 07:20:42;;;;;;;0.10;0.10;;;13.30;99.90;12.50;97983.00;;;;5065807;28;20232;-73
2022/10/29 07:23:11;;;;;;;0.08;0.08;;;13.30;99.90;12.50;97971.00;;;;5073672;28;20221;-74
2022/10/29 07:25:41;;;;;;;0.00;0.00;;;13.40;99.90;12.60;97905.00;;;;5073549;28;20198;-74
2022/10/29 07:28:13;;;;;;;0.10;0.10;;;13.50;99.90;12.70;97922.00;;;;5071390;28;20656;-74
2022/10/29 07:30:41;;;;;;;0.00;0.00;;;13.60;99.90;12.80;97983.00;;;;5065904;28;20602;-74
2022/10/29 07:33:10;;;;;;;0.00;0.00;;;13.60;99.90;12.80;97967.00;;;;5074449;28;20585;-74
2022/10/29 07:35:39;;;;;;;0.00;0.00;;;13.60;99.90;12.80;97981.00;;;;5068545;28;20217;-74
2022/10/29 07:38:10;;;;;;;0.10;0.10;;;13.60;99.90;12.80;97969.00;;;;5069989;28;20300;-74
2022/10/29 07:40:40;;;;;;;0.00;0.00;;;13.60;99.90;12.80;97995.00;;;;5066329;28;20716;-74
2022/10/29 07:43:09;;;;;;;0.00;0.00;;;13.60;99.90;12.80;97956.00;;;;5070939;28;20279;-75
2022/10/29 07:45:37;;;;;;;0.00;0.00;;;13.70;99.90;13.00;97951.00;;;;5070184;28;20194;-74
2022/10/29 07:48:07;;;;;;;0.00;0.00;;;13.80;99.90;13.00;97940.00;;;;5072438;28;20185;-74
2022/10/29 07:50:37;;;;;;;0.10;0.10;;;13.80;99.90;13.00;97959.00;;;;5073142;28;20288;-74
2022/10/29 07:53:08;;;;;;;0.00;0.00;;;13.80;99.90;13.00;97960.00;;;;5074259;28;20221;-75
2022/10/29 07:55:36;;;;;;;0.10;0.10;;;13.80;99.90;13.00;97965.00;;;;5071801;28;20723;-75
2022/10/29 07:58:07;;;;;;;0.00;0.00;;;13.80;99.90;13.10;97947.00;;;;5065996;28;20657;-74
2022/10/29 08:00:38;;;;;;;0.00;0.00;;;13.90;99.90;13.20;97939.00;;;;5080212;28;20255;-75
2022/10/29 08:03:07;;;;;;;0.00;0.00;;;14.00;99.90;13.20;97940.00;;;;5072497;28;20220;-73
2022/10/29 08:05:35;;;;;;;0.00;0.00;;;14.10;99.90;13.30;97943.00;;;;5072287;28;20194;-75
2022/10/29 08:08:04;;;;;;;0.00;0.00;;;14.10;99.90;13.40;97955.00;;;;5066919;28;20206;-75
2022/10/29 08:10:35;;;;;;;0.08;0.08;;;14.20;99.90;13.60;97945.00;;;;5071650;28;20281;-74
2022/10/29 08:13:09;;;;;;;0.00;0.00;;;14.30;99.90;13.50;97941.00;;;;5073485;28;20202;-74
2022/10/29 08:15:37;;;;;;;0.03;0.03;;;14.40;99.90;13.80;97959.00;;;;5070791;28;20228;-75
2022/10/29 08:18:14;;;;;;;0.00;0.00;;;14.50;99.90;13.90;97941.00;;;;5073270;28;20221;-75
2022/10/29 08:20:42;;;;;;;0.00;0.00;;;14.60;99.90;14.00;97941.00;;;;5071996;28;20227;-74
2022/10/29 08:23:11;;;;;;;0.00;0.00;;;14.70;99.90;14.10;97955.00;;;;5071052;28;20272;-74
2022/10/29 08:25:41;;;;;;;0.00;0.00;;;14.90;99.90;14.30;97942.00;;;;5071440;28;20193;-74
2022/10/29 08:28:12;;;;;;;0.00;0.00;;;15.00;99.90;14.40;97954.00;;;;5072714;28;20185;-74
2022/10/29 08:30:48;;;;;;;0.00;0.00;;;15.20;99.90;14.60;97927.00;;;;5072575;28;20190;-74
2022/10/29 08:33:16;;;;;;;0.10;0.10;;;15.30;99.90;14.80;97933.00;;;;5071218;28;20603;-74
2022/10/29 08:35:44;;;;;;;0.10;0.10;;;15.50;99.90;14.90;97949.00;;;;5070193;28;20217;-75
2022/10/29 08:38:14;;;;;;;0.00;0.00;;;15.60;99.90;15.00;97953.00;;;;5070428;28;20205;-74
2022/10/29 08:41:06;;;;;;;0.00;0.00;;;15.70;99.90;15.20;97966.00;;;;5070821;28;20239;-75
2022/10/29 08:44:07;;;;;;;0.00;0.00;;;15.90;99.90;15.30;97938.00;;;;5070500;28;20244;-75
2022/10/29 08:46:46;;;;;;;0.10;0.10;;;16.00;99.90;15.40;97964.00;;;;5071177;28;20247;-77
2022/10/29 08:49:20;;;;;;;0.08;0.08;;;16.10;99.90;15.50;97962.00;;;;5071374;28;20197;-74
2022/10/29 08:51:58;;;;;;;0.10;0.10;;;16.20;99.90;15.60;97950.00;;;;5071609;28;20217;-76
2022/10/29 08:54:31;;;;;;;0.00;0.00;;;16.30;99.90;15.80;97954.00;;;;5071716;28;20256;-74
2022/10/29 08:57:12;;;;;;;0.00;0.00;;;16.40;99.90;15.90;97969.00;;;;5064544;28;20715;-73
2022/10/29 08:59:56;;;;;;;0.00;0.00;;;16.50;99.90;16.10;97974.00;;;;5052786;28;20231;-73
2022/10/29 09:02:26;;;;;;;0.00;0.00;;;16.70;99.90;16.10;97970.00;;;;5067005;28;20237;-74
2022/10/29 09:04:54;;;;;;;0.00;0.00;;;16.80;99.90;16.30;97950.00;;;;5069755;28;20546;-73
2022/10/29 09:07:54;;;;;;;0.00;0.00;;;16.90;99.90;16.30;97961.00;;;;5068528;28;20611;-75
2022/10/29 09:10:40;;;;;;;0.00;0.00;;;17.00;99.90;16.40;97923.00;;;;5068373;28;20201;-75
2022/10/29 09:13:38;;;;;;;0.00;0.00;;;17.10;99.90;16.50;97957.00;;;;5065091;28;20908;-75
2022/10/29 09:16:31;;;;;;;0.00;0.00;;;17.20;99.90;16.60;97957.00;;;;5067759;28;20221;-74
2022/10/29 09:19:24;;;;;;;0.00;0.00;;;17.30;99.90;16.80;97963.00;;;;5058469;28;20661;-74
2022/10/29 09:22:04;;;;;;;0.00;0.00;;;17.40;99.90;16.90;97960.00;;;;5058713;28;20214;-74
2022/10/29 09:24:42;;;;;;;0.00;0.00;;;17.50;99.90;17.00;97960.00;;;;5069774;28;20202;-73
2022/10/29 09:27:18;;;;;;;0.00;0.00;;;17.60;99.90;17.00;97963.00;;;;5071503;28;20194;-74
2022/10/29 09:30:09;;;;;;;0.00;0.00;;;17.70;99.90;17.10;97960.00;;;;5070989;28;20711;-74
2022/10/29 09:32:43;;;;;;;0.00;0.00;;;17.80;99.90;17.20;97971.00;;;;5070994;28;20217;-74
2022/10/29 09:35:14;;;;;;;0.00;0.00;;;17.80;99.90;17.20;97964.00;;;;5071521;28;20205;-74
2022/10/29 09:37:49;;;;;;;0.00;0.00;;;17.80;99.90;17.10;97971.00;;;;5058104;28;20226;-73
2022/10/29 09:40:31;;;;;;;0.00;0.00;;;17.90;99.90;17.30;97957.00;;;;5044606;28;20213;-74
2022/10/29 09:43:05;;;;;;;0.00;0.00;;;18.00;99.90;17.40;97932.00;;;;5051204;28;20237;-75
2022/10/29 09:45:48;;;;;;;0.00;0.00;;;18.00;99.90;17.50;97955.00;;;;5051298;28;20679;-74
2022/10/29 09:48:24;;;;;;;0.00;0.00;;;18.10;99.90;17.60;97944.00;;;;5068311;28;20660;-73
2022/10/29 09:51:09;;;;;;;0.00;0.00;;;18.20;99.90;17.70;97981.00;;;;5073149;28;20247;-73
2022/10/29 09:53:37;;;;;;;0.00;0.00;;;18.30;99.90;17.80;97942.00;;;;5076355;28;20189;-73
2022/10/29 09:56:08;;;;;;;0.00;0.00;;;18.40;99.90;17.90;97972.00;;;;5075232;28;20217;-73
2022/10/29 09:58:41;;;;;;;0.00;0.00;;;18.50;99.90;18.00;97947.00;;;;5074224;28;20244;-73
2022/10/29 10:01:11;;;;;;;0.00;0.00;;;18.60;99.90;18.20;97946.00;;;;5076091;28;20220;-73
2022/10/29 10:03:44;;;;;;;0.00;0.00;;;18.70;99.90;18.30;97946.00;;;;5068097;28;20641;-73
2022/10/29 10:06:15;;;;;;;0.00;0.00;;;18.80;99.90;18.40;97948.00;;;;5061294;28;20673;-75
2022/10/29 10:09:02;;;;;;;0.00;0.00;;;19.00;99.90;18.60;97937.00;;;;5054447;28;20198;-73
2022/10/29 10:11:37;;;;;;;0.00;0.00;;;19.20;99.90;18.80;97932.00;;;;5059477;28;20267;-74
2022/10/29 10:14:17;;;;;;;0.00;0.00;;;19.40;99.90;18.90;97932.00;;;;5075279;28;20718;-73
2022/10/29 10:16:56;;;;;;;0.00;0.00;;;19.50;99.90;19.10;97928.00;;;;5074417;28;20213;-74
2022/10/29 10:19:27;;;;;;;0.00;0.00;;;19.70;99.90;19.20;97927.00;;;;5074382;28;20235;-74
2022/10/29 10:22:01;;;;;;;0.00;0.00;;;19.80;99.90;19.40;97933.00;;;;5074193;28;20632;-74
2022/10/29 10:24:33;;;;;;;0.00;0.00;;;19.90;99.90;19.50;97647.00;;;;5057363;28;20198;-75
2022/10/29 10:27:01;;;;;;;0.00;0.00;;;20.00;99.90;19.70;97920.00;;;;5076129;28;20272;-74
2022/10/29 10:29:30;;;;;;;0.00;0.00;;;20.20;99.90;19.80;97925.00;;;;5069915;28;20251;-74
2022/10/29 10:32:16;;;;;;;0.00;0.00;;;20.30;99.90;19.70;97924.00;;;;5063947;28;20278;-74
2022/10/29 10:34:44;;;;;;;0.00;0.00;;;20.20;99.90;19.60;97919.00;;;;5074815;28;20197;-74
2022/10/29 10:37:18;;;;;;;0.00;0.00;;;20.10;99.90;19.50;97900.00;;;;5065042;28;20264;-74
2022/10/29 10:39:52;;;;;;;0.00;0.00;;;20.10;99.90;19.60;97921.00;;;;5054173;28;20206;-74
2022/10/29 10:42:26;;;;;;;0.00;0.00;;;20.10;99.90;19.70;97914.00;;;;5036598;28;20234;-74
2022/10/29 10:45:00;;;;;;;0.00;0.00;;;20.20;99.90;19.80;97921.00;;;;5058488;28;20270;-74
2022/10/29 10:47:36;;;;;;;0.00;0.00;;;20.30;99.90;19.90;97915.00;;;;5079161;28;20189;-74
2022/10/29 10:50:13;;;;;;;0.00;0.00;;;20.40;99.90;19.80;97905.00;;;;5074937;28;20587;-74
2022/10/29 10:52:41;;;;;;;0.00;0.00;;;20.50;99.90;20.00;97911.00;;;;5074049;28;20213;-74
2022/10/29 10:55:22;;;;;;;0.00;0.00;;;20.50;99.90;20.00;97910.00;;;;5074742;28;20189;-74
2022/10/29 10:58:04;;;;;;;0.00;0.00;;;20.50;99.90;20.00;97914.00;;;;5073856;28;20221;-73
2022/10/29 11:00:40;;;;;;;0.00;0.00;;;20.50;99.90;20.00;97854.00;;;;5074304;28;20600;-74
2022/10/29 11:03:20;;;;;;;0.00;0.00;;;20.60;99.90;20.00;97842.00;;;;5064103;28;20211;-74
2022/10/29 11:05:59;;;;;;;0.00;0.00;;;20.60;99.90;20.10;97881.00;;;;5054570;28;20260;-75
2022/10/29 11:08:34;;;;;;;0.00;0.00;;;20.60;99.90;20.10;97888.00;;;;5053572;28;20205;-74
2022/10/29 11:11:10;;;;;;;0.00;0.00;;;20.70;99.90;20.10;97886.00;;;;5061753;28;20197;-74
2022/10/29 11:13:42;;;;;;;0.00;0.00;;;20.60;99.90;20.10;97837.00;;;;5075100;28;20223;-73
2022/10/29 11:16:18;;;;;;;0.00;0.00;;;20.60;99.90;20.00;97835.00;;;;5073714;28;20261;-73
2022/10/29 11:18:59;;;;;;;0.00;0.00;;;20.60;99.90;20.00;97810.00;;;;5073891;28;20221;-74